Time;durP1;ratioP1;P1;durP2;ratioP2;P2;SDS_P1;SDS_P2;PMS_P1;PMS_P2;Temp;Humidity;BMP_temperature;BMP_pressure;BME280_temperature;BME280_humidity;BME280_pressure;Samples;Min_cycle;Max_cycle;Signal;HPM_P1;HPM_P2
2021/12/27 00:01:04;;;;;;;164.10;93.80;;;;;;;;;;5007531;28;20425;-79
2021/12/27 00:03:30;;;;;;;196.10;102.83;;;;;;;;;;5013284;28;20488;-78
2021/12/27 00:05:56;;;;;;;163.83;95.33;;;;;;;;;;5012960;28;20458;-79
2021/12/27 00:08:23;;;;;;;183.20;98.70;;;;;;;;;;5027184;28;20984;-79
2021/12/27 00:10:49;;;;;;;164.63;94.37;;;;;;;;;;5016271;28;20450;-79
2021/12/27 00:13:16;;;;;;;162.83;94.13;;;;;;;;;;5028405;28;20415;-78
2021/12/27 00:15:43;;;;;;;163.33;92.90;;;;;;;;;;5027505;28;20553;-79
2021/12/27 00:18:10;;;;;;;187.93;103.53;;;;;;;;;;5011296;28;20417;-78
2021/12/27 00:20:36;;;;;;;204.20;106.97;;;;;;;;;;5027863;28;20422;-78
2021/12/27 00:23:02;;;;;;;191.40;102.80;;;;;;;;;;5024501;28;20434;-79
2021/12/27 00:25:29;;;;;;;186.43;100.90;;;;;;;;;;5008321;28;20933;-79
2021/12/27 00:27:55;;;;;;;201.47;104.00;;;;;;;;;;5027366;28;20504;-79
2021/12/27 00:30:22;;;;;;;183.07;100.67;;;;;;;;;;5024997;28;20960;-79
2021/12/27 00:32:48;;;;;;;184.53;101.43;;;;;;;;;;5028520;28;20466;-79
2021/12/27 00:35:15;;;;;;;197.90;105.30;;;;;;;;;;5015732;28;20475;-78
2021/12/27 00:37:42;;;;;;;175.50;96.57;;;;;;;;;;5027347;28;20500;-78
2021/12/27 00:40:09;;;;;;;185.23;99.20;;;;;;;;;;5024544;28;20419;-78
2021/12/27 00:42:35;;;;;;;198.77;103.47;;;;;;;;;;5014405;28;20415;-78
2021/12/27 00:45:01;;;;;;;190.77;100.37;;;;;;;;;;5027528;28;20442;-78
2021/12/27 00:47:27;;;;;;;186.07;98.37;;;;;;;;;;5013999;28;20407;-78
2021/12/27 00:49:53;;;;;;;197.53;102.13;;;;;;;;;;5013081;28;20454;-78
2021/12/27 00:52:19;;;;;;;202.37;104.70;;;;;;;;;;5026180;28;20419;-79
2021/12/27 00:54:45;;;;;;;163.63;92.17;;;;;;;;;;5015455;28;20823;-79
2021/12/27 00:57:11;;;;;;;170.03;94.70;;;;;;;;;;5015352;28;20453;-79
2021/12/27 00:59:37;;;;;;;182.40;99.40;;;;;;;;;;5011280;28;21034;-79
2021/12/27 01:02:04;;;;;;;156.10;90.17;;;;;;;;;;5026831;28;20419;-79
2021/12/27 01:04:30;;;;;;;166.43;93.10;;;;;;;;;;5029326;28;20407;-79
2021/12/27 01:06:56;;;;;;;193.53;103.13;;;;;;;;;;5028553;28;20426;-79
2021/12/27 01:09:35;;;;;;;144.27;87.40;;;;;;;;;;5029861;28;20430;-78
2021/12/27 01:15:06;;;;;;;158.63;91.77;;;;;;;;;;5027929;28;20410;-79
2021/12/27 01:17:32;;;;;;;178.77;100.07;;;;;;;;;;5029051;28;21135;-79
2021/12/27 01:19:58;;;;;;;159.10;91.50;;;;;;;;;;5024443;28;20415;-79
2021/12/27 01:22:24;;;;;;;159.17;90.23;;;;;;;;;;5024969;28;20426;-79
2021/12/27 01:24:50;;;;;;;158.73;90.87;;;;;;;;;;5015405;28;20516;-79
2021/12/27 01:27:16;;;;;;;148.20;87.80;;;;;;;;;;5028353;28;20430;-78
2021/12/27 01:29:43;;;;;;;153.77;89.40;;;;;;;;;;5029237;28;20442;-79
2021/12/27 01:32:09;;;;;;;156.63;91.33;;;;;;;;;;5031615;28;21401;-79
2021/12/27 01:34:35;;;;;;;157.73;88.80;;;;;;;;;;5017167;28;20400;-79
2021/12/27 01:37:01;;;;;;;148.37;88.43;;;;;;;;;;5014155;28;20457;-78
2021/12/27 01:39:27;;;;;;;164.47;93.90;;;;;;;;;;5029192;28;20410;-79
2021/12/27 01:41:54;;;;;;;156.57;91.20;;;;;;;;;;5029261;28;20422;-79
2021/12/27 01:44:20;;;;;;;166.10;94.00;;;;;;;;;;5031456;28;21314;-79
2021/12/27 01:46:46;;;;;;;185.17;99.23;;;;;;;;;;5031524;28;20509;-79
2021/12/27 01:49:12;;;;;;;157.93;92.53;;;;;;;;;;5014352;28;20422;-79
2021/12/27 01:51:40;;;;;;;140.53;83.37;;;;;;;;;;5027255;28;21062;-78
2021/12/27 01:54:07;;;;;;;165.53;94.03;;;;;;;;;;5013717;28;20423;-79
2021/12/27 01:56:33;;;;;;;157.83;92.47;;;;;;;;;;5018439;28;20417;-78
2021/12/27 01:58:59;;;;;;;145.53;86.53;;;;;;;;;;5010699;28;21286;-78
2021/12/27 02:01:26;;;;;;;177.60;100.80;;;;;;;;;;5030863;28;20422;-78
2021/12/27 02:03:53;;;;;;;138.33;83.37;;;;;;;;;;5029717;28;21239;-78
2021/12/27 02:06:19;;;;;;;144.27;86.73;;;;;;;;;;5029206;28;20450;-79
2021/12/27 02:08:46;;;;;;;138.23;84.93;;;;;;;;;;5029036;28;21036;-79
2021/12/27 02:11:13;;;;;;;148.10;88.60;;;;;;;;;;5027628;28;20434;-78
2021/12/27 02:13:43;;;;;;;146.47;89.50;;;;;;;;;;5033660;28;20411;-78
2021/12/27 02:16:15;;;;;;;150.53;90.13;;;;;;;;;;5030851;28;20431;-78
2021/12/27 02:18:44;;;;;;;148.73;89.77;;;;;;;;;;5015434;28;20509;-79
2021/12/27 02:21:10;;;;;;;155.17;91.40;;;;;;;;;;5029212;28;21088;-78
2021/12/27 02:23:38;;;;;;;159.30;90.87;;;;;;;;;;5015717;28;20431;-78
2021/12/27 02:26:04;;;;;;;147.57;87.27;;;;;;;;;;5025899;28;20446;-78
2021/12/27 02:28:30;;;;;;;132.30;80.13;;;;;;;;;;5031955;28;20529;-79
2021/12/27 02:30:57;;;;;;;139.27;83.57;;;;;;;;;;5013792;28;20419;-79
2021/12/27 02:33:23;;;;;;;147.00;86.53;;;;;;;;;;5030927;28;21134;-79
2021/12/27 02:35:50;;;;;;;151.90;88.80;;;;;;;;;;5028213;28;20427;-79
2021/12/27 02:38:18;;;;;;;148.10;86.57;;;;;;;;;;5017852;28;20446;-79
2021/12/27 02:40:44;;;;;;;159.00;90.37;;;;;;;;;;5031022;28;20426;-79
2021/12/27 02:43:21;;;;;;;159.30;91.67;;;;;;;;;;5031249;28;20438;-78
2021/12/27 02:45:51;;;;;;;146.70;88.27;;;;;;;;;;5012133;28;20473;-79
2021/12/27 02:48:20;;;;;;;153.67;88.37;;;;;;;;;;5029994;28;20415;-79
2021/12/27 02:50:47;;;;;;;159.07;89.67;;;;;;;;;;5029420;28;20476;-78
2021/12/27 02:53:14;;;;;;;137.67;84.30;;;;;;;;;;5010477;28;20525;-78
2021/12/27 02:55:40;;;;;;;157.47;91.37;;;;;;;;;;5026337;28;20423;-78
2021/12/27 02:58:07;;;;;;;166.10;93.77;;;;;;;;;;5013637;28;20422;-78
2021/12/27 03:00:37;;;;;;;136.67;82.63;;;;;;;;;;5015281;28;20430;-78
2021/12/27 03:03:03;;;;;;;138.10;83.00;;;;;;;;;;5015917;28;20407;-78
2021/12/27 03:05:31;;;;;;;135.60;81.77;;;;;;;;;;5028736;28;20461;-79
2021/12/27 03:07:57;;;;;;;139.53;84.10;;;;;;;;;;5013179;28;20438;-78
2021/12/27 03:10:25;;;;;;;131.50;78.50;;;;;;;;;;5015205;28;21342;-78
2021/12/27 03:12:51;;;;;;;148.80;85.90;;;;;;;;;;5027789;28;20411;-79
2021/12/27 03:15:18;;;;;;;140.10;78.53;;;;;;;;;;5015234;28;21300;-78
2021/12/27 03:17:45;;;;;;;148.90;83.90;;;;;;;;;;5024791;28;20446;-79
2021/12/27 03:20:12;;;;;;;137.73;80.97;;;;;;;;;;5029720;28;20419;-79
2021/12/27 03:22:40;;;;;;;152.13;83.47;;;;;;;;;;5030189;28;20431;-78
2021/12/27 03:25:07;;;;;;;153.40;84.50;;;;;;;;;;5024980;28;20447;-79
2021/12/27 03:27:33;;;;;;;154.43;86.67;;;;;;;;;;5027622;28;20403;-79
2021/12/27 03:29:59;;;;;;;149.47;84.00;;;;;;;;;;5016181;28;21249;-79
2021/12/27 03:32:25;;;;;;;143.27;84.03;;;;;;;;;;5027733;28;20418;-79
2021/12/27 03:34:58;;;;;;;142.10;82.97;;;;;;;;;;5012780;28;20473;-79
2021/12/27 03:37:24;;;;;;;139.13;81.17;;;;;;;;;;5009651;28;20476;-79
2021/12/27 03:39:51;;;;;;;143.30;83.40;;;;;;;;;;5026677;28;20839;-79
2021/12/27 03:42:17;;;;;;;140.40;83.33;;;;;;;;;;5008825;28;20477;-78
2021/12/27 03:44:44;;;;;;;149.87;85.20;;;;;;;;;;5013638;28;20578;-79
2021/12/27 03:47:10;;;;;;;151.13;85.77;;;;;;;;;;5027072;28;21227;-79
2021/12/27 03:49:37;;;;;;;146.00;85.83;;;;;;;;;;5024895;28;20418;-79
2021/12/27 03:52:03;;;;;;;148.67;85.27;;;;;;;;;;5026042;28;20512;-79
2021/12/27 03:54:29;;;;;;;146.40;84.47;;;;;;;;;;5013235;28;20442;-79
2021/12/27 03:56:55;;;;;;;142.13;83.07;;;;;;;;;;5013505;28;21290;-79
2021/12/27 03:59:34;;;;;;;136.50;82.03;;;;;;;;;;5031206;28;20426;-79
2021/12/27 04:02:00;;;;;;;151.97;87.37;;;;;;;;;;5029657;28;20415;-79
2021/12/27 04:04:27;;;;;;;148.97;85.73;;;;;;;;;;5013169;28;20474;-79
2021/12/27 04:06:53;;;;;;;145.27;83.33;;;;;;;;;;5025636;28;20525;-79
2021/12/27 04:09:19;;;;;;;145.10;82.77;;;;;;;;;;5025880;28;20423;-79
2021/12/27 04:11:45;;;;;;;147.97;83.83;;;;;;;;;;5030006;28;20476;-79
2021/12/27 04:14:11;;;;;;;140.33;80.07;;;;;;;;;;5025361;28;20455;-79
2021/12/27 04:16:37;;;;;;;132.80;77.40;;;;;;;;;;5014786;28;20442;-79
2021/12/27 04:19:04;;;;;;;139.77;79.93;;;;;;;;;;5028546;28;20430;-79
2021/12/27 04:21:30;;;;;;;149.53;84.90;;;;;;;;;;5025320;28;20429;-79
2021/12/27 04:23:56;;;;;;;144.53;82.93;;;;;;;;;;5027222;28;20414;-79
2021/12/27 04:26:23;;;;;;;147.43;80.83;;;;;;;;;;5011637;28;21582;-79
2021/12/27 04:28:49;;;;;;;133.67;78.30;;;;;;;;;;5028664;28;20424;-79
2021/12/27 04:31:15;;;;;;;141.53;82.47;;;;;;;;;;5016028;28;20462;-79
2021/12/27 04:33:41;;;;;;;138.17;79.27;;;;;;;;;;5024852;28;20421;-79
2021/12/27 04:36:08;;;;;;;136.77;80.47;;;;;;;;;;5008666;28;21222;-80
2021/12/27 04:38:34;;;;;;;138.73;77.37;;;;;;;;;;5027304;28;21040;-79
2021/12/27 04:41:01;;;;;;;139.03;79.13;;;;;;;;;;5032718;28;21364;-79
2021/12/27 04:43:27;;;;;;;146.20;83.47;;;;;;;;;;5014564;28;20415;-79
2021/12/27 04:45:53;;;;;;;135.73;78.17;;;;;;;;;;5023610;28;20459;-79
2021/12/27 04:48:21;;;;;;;125.30;75.47;;;;;;;;;;5024561;28;21296;-79
2021/12/27 04:50:47;;;;;;;150.33;82.97;;;;;;;;;;5023825;28;21100;-78
2021/12/27 04:53:13;;;;;;;161.97;89.27;;;;;;;;;;5030054;28;20411;-78
2021/12/27 04:55:40;;;;;;;145.83;84.77;;;;;;;;;;5027793;28;20419;-79
2021/12/27 04:58:10;;;;;;;145.67;82.93;;;;;;;;;;5006047;28;20510;-79
2021/12/27 05:00:37;;;;;;;169.27;91.67;;;;;;;;;;5023083;28;20491;-78
2021/12/27 05:03:03;;;;;;;148.90;85.00;;;;;;;;;;5027205;28;20544;-79
2021/12/27 05:05:31;;;;;;;167.70;92.23;;;;;;;;;;5030776;28;20531;-79
2021/12/27 05:07:57;;;;;;;153.83;86.77;;;;;;;;;;5027286;28;20426;-79
2021/12/27 05:10:24;;;;;;;158.13;85.50;;;;;;;;;;5030152;28;20422;-79
2021/12/27 05:12:50;;;;;;;140.67;81.63;;;;;;;;;;5017704;28;20501;-78
2021/12/27 05:15:16;;;;;;;138.33;79.90;;;;;;;;;;5032699;28;21264;-79
2021/12/27 05:17:42;;;;;;;132.87;79.07;;;;;;;;;;5016684;28;20419;-79
2021/12/27 05:20:09;;;;;;;128.30;76.57;;;;;;;;;;5015706;28;20438;-79
2021/12/27 05:22:35;;;;;;;132.13;78.10;;;;;;;;;;5029067;28;20430;-79
2021/12/27 05:25:01;;;;;;;137.17;80.10;;;;;;;;;;5027053;28;20434;-78
2021/12/27 05:27:27;;;;;;;144.27;83.73;;;;;;;;;;5031495;28;20418;-79
2021/12/27 05:29:53;;;;;;;132.13;77.43;;;;;;;;;;5030257;28;20429;-78
2021/12/27 05:32:19;;;;;;;131.83;79.10;;;;;;;;;;5015837;28;20477;-78
2021/12/27 05:34:45;;;;;;;137.47;78.47;;;;;;;;;;5013941;28;20423;-78
2021/12/27 05:37:11;;;;;;;132.90;77.93;;;;;;;;;;5028997;28;20426;-78
2021/12/27 05:39:38;;;;;;;138.00;79.47;;;;;;;;;;5019624;28;20745;-78
2021/12/27 05:42:04;;;;;;;129.40;75.33;;;;;;;;;;5035320;28;20471;-78
2021/12/27 05:44:30;;;;;;;130.47;73.70;;;;;;;;;;5029492;28;20415;-78
2021/12/27 05:46:56;;;;;;;128.93;76.37;;;;;;;;;;5027837;28;20454;-78
2021/12/27 05:49:23;;;;;;;137.67;79.53;;;;;;;;;;5029651;28;20415;-78
2021/12/27 05:51:49;;;;;;;133.10;79.30;;;;;;;;;;5029737;28;20423;-78
2021/12/27 05:54:15;;;;;;;156.67;86.17;;;;;;;;;;5014406;28;20423;-78
2021/12/27 05:56:45;;;;;;;156.33;85.73;;;;;;;;;;5015407;28;20423;-79
2021/12/27 05:59:12;;;;;;;150.70;84.47;;;;;;;;;;5018112;28;21450;-79
2021/12/27 06:01:38;;;;;;;134.10;77.70;;;;;;;;;;5017209;28;20502;-79
2021/12/27 06:04:05;;;;;;;142.43;82.10;;;;;;;;;;5028572;28;20579;-79
2021/12/27 06:06:31;;;;;;;159.60;87.93;;;;;;;;;;5031377;28;21324;-79
2021/12/27 06:08:57;;;;;;;152.50;85.13;;;;;;;;;;5032886;28;20473;-79
2021/12/27 06:11:23;;;;;;;151.13;84.73;;;;;;;;;;5024828;28;20478;-79
2021/12/27 06:13:49;;;;;;;154.57;84.87;;;;;;;;;;5026488;28;20442;-79
2021/12/27 06:16:16;;;;;;;173.87;92.40;;;;;;;;;;5015758;28;21139;-79
2021/12/27 06:18:42;;;;;;;140.80;81.17;;;;;;;;;;5029119;28;21236;-79
2021/12/27 06:21:08;;;;;;;134.50;79.47;;;;;;;;;;5021221;28;21009;-79
2021/12/27 06:23:34;;;;;;;128.93;76.67;;;;;;;;;;5027350;28;20426;-79
2021/12/27 06:26:00;;;;;;;154.23;88.20;;;;;;;;;;5009546;28;20554;-79
2021/12/27 06:28:27;;;;;;;139.50;79.77;;;;;;;;;;5011754;28;20426;-79
2021/12/27 06:30:54;;;;;;;138.40;78.00;;;;;;;;;;5026071;28;20465;-79
2021/12/27 06:33:20;;;;;;;135.33;75.67;;;;;;;;;;5011335;28;20416;-79
2021/12/27 06:35:46;;;;;;;128.83;78.30;;;;;;;;;;5028535;28;20522;-79
2021/12/27 06:38:12;;;;;;;126.47;76.13;;;;;;;;;;5013954;28;20422;-79
2021/12/27 06:40:38;;;;;;;122.63;74.63;;;;;;;;;;5010342;28;20418;-79
2021/12/27 06:43:04;;;;;;;119.60;74.40;;;;;;;;;;5012345;28;20445;-78
2021/12/27 06:45:30;;;;;;;129.20;79.20;;;;;;;;;;5027781;28;20449;-79
2021/12/27 06:47:56;;;;;;;143.53;85.50;;;;;;;;;;5025488;28;20422;-79
2021/12/27 06:50:23;;;;;;;132.23;79.83;;;;;;;;;;5026819;28;20418;-79
2021/12/27 06:52:50;;;;;;;130.47;77.27;;;;;;;;;;5029272;28;21330;-79
2021/12/27 06:55:16;;;;;;;134.90;82.17;;;;;;;;;;5027776;28;21321;-79
2021/12/27 06:57:42;;;;;;;123.07;77.40;;;;;;;;;;5013793;28;21213;-79
2021/12/27 07:00:10;;;;;;;128.70;76.77;;;;;;;;;;5008795;28;20431;-79
2021/12/27 07:02:36;;;;;;;137.07;81.33;;;;;;;;;;5024368;28;20429;-79
2021/12/27 07:05:02;;;;;;;127.20;78.03;;;;;;;;;;5027130;28;20538;-79
2021/12/27 07:07:28;;;;;;;126.60;75.80;;;;;;;;;;5023424;28;20423;-79
2021/12/27 07:09:54;;;;;;;127.70;76.77;;;;;;;;;;5024852;28;20438;-79
2021/12/27 07:12:20;;;;;;;126.57;79.07;;;;;;;;;;5030065;28;20410;-81
2021/12/27 07:14:48;;;;;;;123.37;76.80;;;;;;;;;;5012728;28;20431;-79
2021/12/27 07:17:14;;;;;;;133.23;80.83;;;;;;;;;;5012195;28;20424;-79
2021/12/27 07:19:40;;;;;;;123.27;77.00;;;;;;;;;;5013109;28;20430;-79
2021/12/27 07:22:06;;;;;;;118.93;74.27;;;;;;;;;;5010569;28;20439;-78
2021/12/27 07:24:32;;;;;;;130.83;76.03;;;;;;;;;;5026747;28;20414;-79
2021/12/27 07:26:59;;;;;;;120.47;72.70;;;;;;;;;;5027034;28;20557;-79
2021/12/27 07:29:25;;;;;;;116.50;69.60;;;;;;;;;;5023240;28;20422;-79
2021/12/27 07:31:51;;;;;;;122.17;74.57;;;;;;;;;;5028942;28;20494;-79
2021/12/27 07:34:19;;;;;;;142.37;80.63;;;;;;;;;;5029647;28;21044;-79
2021/12/27 07:36:45;;;;;;;124.50;75.30;;;;;;;;;;5027333;28;20456;-79
2021/12/27 07:39:11;;;;;;;140.17;80.10;;;;;;;;;;5007302;28;20430;-79
2021/12/27 07:41:38;;;;;;;128.70;76.67;;;;;;;;;;5009672;28;20563;-79
2021/12/27 07:44:04;;;;;;;143.80;85.70;;;;;;;;;;5024605;28;21039;-78
2021/12/27 07:46:30;;;;;;;143.70;84.07;;;;;;;;;;5023058;28;20500;-79
2021/12/27 07:48:56;;;;;;;142.97;84.83;;;;;;;;;;5011176;28;20493;-79
2021/12/27 07:51:22;;;;;;;134.83;81.73;;;;;;;;;;5009766;28;20431;-79
2021/12/27 07:53:48;;;;;;;132.70;81.97;;;;;;;;;;5012652;28;20426;-79
2021/12/27 07:56:15;;;;;;;131.47;78.73;;;;;;;;;;5026662;28;20525;-80
2021/12/27 07:58:41;;;;;;;139.20;84.70;;;;;;;;;;5024015;28;20482;-80
2021/12/27 08:01:08;;;;;;;142.07;85.03;;;;;;;;;;5025186;28;20601;-80
2021/12/27 08:03:34;;;;;;;137.67;82.50;;;;;;;;;;5011946;28;20422;-80
2021/12/27 08:06:00;;;;;;;133.40;80.73;;;;;;;;;;5006930;28;21414;-80
2021/12/27 08:08:26;;;;;;;123.83;76.87;;;;;;;;;;5021982;28;20520;-80
2021/12/27 08:10:52;;;;;;;128.77;79.70;;;;;;;;;;5010093;28;20423;-80
2021/12/27 08:13:18;;;;;;;125.47;77.77;;;;;;;;;;5026046;28;20472;-80
2021/12/27 08:15:44;;;;;;;124.00;75.50;;;;;;;;;;5020253;28;20457;-80
2021/12/27 08:18:11;;;;;;;128.40;76.73;;;;;;;;;;5011966;28;20427;-80
2021/12/27 08:20:37;;;;;;;129.83;79.33;;;;;;;;;;5008644;28;20435;-79
2021/12/27 08:23:03;;;;;;;126.17;76.37;;;;;;;;;;5004625;28;20435;-80
2021/12/27 08:25:29;;;;;;;128.77;78.87;;;;;;;;;;5002653;28;20469;-80
2021/12/27 08:27:55;;;;;;;134.00;79.50;;;;;;;;;;5004561;28;20582;-80
2021/12/27 08:30:22;;;;;;;135.57;83.53;;;;;;;;;;5009511;28;20518;-80
2021/12/27 08:32:48;;;;;;;129.43;79.90;;;;;;;;;;5008659;28;20462;-80
2021/12/27 08:35:14;;;;;;;130.10;80.87;;;;;;;;;;5023886;28;20457;-80
2021/12/27 08:37:41;;;;;;;122.07;76.73;;;;;;;;;;5018403;28;20423;-80
2021/12/27 08:40:08;;;;;;;134.00;81.37;;;;;;;;;;5008647;28;20446;-79
2021/12/27 08:42:34;;;;;;;133.20;80.83;;;;;;;;;;5022394;28;20504;-80
2021/12/27 08:45:01;;;;;;;124.20;77.33;;;;;;;;;;5006015;28;21221;-80
2021/12/27 08:47:27;;;;;;;135.70;80.80;;;;;;;;;;5025709;28;20459;-80
2021/12/27 08:49:53;;;;;;;118.37;73.90;;;;;;;;;;5023058;28;20428;-80
2021/12/27 08:52:19;;;;;;;119.87;76.03;;;;;;;;;;5011332;28;20411;-80
2021/12/27 08:54:45;;;;;;;129.77;83.40;;;;;;;;;;5025224;28;20912;-80
2021/12/27 08:57:11;;;;;;;118.87;74.63;;;;;;;;;;5027123;28;21133;-80
2021/12/27 08:59:38;;;;;;;119.63;76.03;;;;;;;;;;5013627;28;20458;-80
2021/12/27 09:02:04;;;;;;;124.93;78.37;;;;;;;;;;5024821;28;20418;-80
2021/12/27 09:04:31;;;;;;;119.87;76.53;;;;;;;;;;5025624;28;20502;-80
2021/12/27 09:06:57;;;;;;;120.67;77.77;;;;;;;;;;5011198;28;20473;-80
2021/12/27 09:09:23;;;;;;;121.83;76.90;;;;;;;;;;5013211;28;20411;-80
2021/12/27 09:11:49;;;;;;;137.30;83.83;;;;;;;;;;5012512;28;20510;-80
2021/12/27 09:14:15;;;;;;;134.80;84.37;;;;;;;;;;5011329;28;20426;-79
2021/12/27 09:16:41;;;;;;;135.13;84.33;;;;;;;;;;5014496;28;20435;-79
2021/12/27 09:19:07;;;;;;;128.73;81.20;;;;;;;;;;5029358;28;20438;-79
2021/12/27 09:21:34;;;;;;;120.70;77.63;;;;;;;;;;5028513;28;20443;-80
2021/12/27 09:24:00;;;;;;;135.33;82.50;;;;;;;;;;5026731;28;20455;-80
2021/12/27 09:26:26;;;;;;;127.53;80.37;;;;;;;;;;5024614;28;21224;-80
2021/12/27 09:28:52;;;;;;;139.10;83.00;;;;;;;;;;5028395;28;20438;-80
2021/12/27 09:31:18;;;;;;;135.67;81.17;;;;;;;;;;5014261;28;21361;-80
2021/12/27 09:33:44;;;;;;;128.27;81.10;;;;;;;;;;5010353;28;20529;-80
2021/12/27 09:36:10;;;;;;;128.13;77.60;;;;;;;;;;5010306;28;20425;-80
2021/12/27 09:38:36;;;;;;;128.07;77.00;;;;;;;;;;5029005;28;20422;-80
2021/12/27 09:41:02;;;;;;;128.77;78.77;;;;;;;;;;5024263;28;20497;-80
2021/12/27 09:43:29;;;;;;;132.07;79.23;;;;;;;;;;5021229;28;20423;-80
2021/12/27 09:45:55;;;;;;;120.00;72.93;;;;;;;;;;5011642;28;21520;-80
2021/12/27 09:48:21;;;;;;;138.80;83.90;;;;;;;;;;5005786;28;20426;-79
2021/12/27 09:50:50;;;;;;;120.87;73.87;;;;;;;;;;5026649;28;20419;-80
2021/12/27 09:53:16;;;;;;;136.83;78.30;;;;;;;;;;5010384;28;20420;-80
2021/12/27 09:55:43;;;;;;;131.40;74.40;;;;;;;;;;5026802;28;20429;-80
2021/12/27 09:58:09;;;;;;;126.93;71.17;;;;;;;;;;5026082;28;20412;-79
2021/12/27 10:00:36;;;;;;;133.80;76.70;;;;;;;;;;5012550;28;21351;-80
2021/12/27 10:03:02;;;;;;;108.50;66.60;;;;;;;;;;5025772;28;22837;-79
2021/12/27 10:05:29;;;;;;;125.07;72.57;;;;;;;;;;5030110;28;20454;-80
2021/12/27 10:07:55;;;;;;;117.63;71.60;;;;;;;;;;5024013;28;20529;-80
2021/12/27 10:10:25;;;;;;;124.97;73.70;;;;;;;;;;5012590;28;20457;-80
2021/12/27 10:12:51;;;;;;;126.90;72.23;;;;;;;;;;5022466;28;20608;-80
2021/12/27 10:15:19;;;;;;;117.13;68.63;;;;;;;;;;5024492;28;20432;-80
2021/12/27 10:17:46;;;;;;;119.10;71.53;;;;;;;;;;5026870;28;21163;-80
2021/12/27 10:20:16;;;;;;;123.37;72.00;;;;;;;;;;5011209;28;20419;-81
2021/12/27 10:22:45;;;;;;;107.90;66.37;;;;;;;;;;5008815;28;21047;-81
2021/12/27 10:25:30;;;;;;;112.77;68.40;;;;;;;;;;5010035;28;20512;-80
2021/12/27 10:27:57;;;;;;;110.30;63.17;;;;;;;;;;5023308;28;20477;-81
2021/12/27 10:30:25;;;;;;;109.77;65.97;;;;;;;;;;5029702;28;20410;-79
2021/12/27 10:33:03;;;;;;;107.20;63.33;;;;;;;;;;5012514;28;20491;-80
2021/12/27 10:35:43;;;;;;;106.77;64.30;;;;;;;;;;5023523;28;20468;-80
2021/12/27 10:38:28;;;;;;;113.73;67.27;;;;;;;;;;5019467;28;20639;-79
2021/12/27 10:41:09;;;;;;;104.33;62.13;;;;;;;;;;5008722;28;20509;-81
2021/12/27 10:43:35;;;;;;;110.03;65.83;;;;;;;;;;5010601;28;20465;-81
2021/12/27 10:46:02;;;;;;;110.43;64.73;;;;;;;;;;5010280;28;20563;-81
2021/12/27 10:48:32;;;;;;;108.00;64.97;;;;;;;;;;5028150;28;21220;-80
2021/12/27 10:50:58;;;;;;;116.23;68.00;;;;;;;;;;5017725;28;20485;-80
2021/12/27 10:53:24;;;;;;;115.97;68.47;;;;;;;;;;5025243;28;21243;-81
2021/12/27 10:55:51;;;;;;;105.47;65.97;;;;;;;;;;5025705;28;20427;-82
2021/12/27 10:58:18;;;;;;;99.83;61.77;;;;;;;;;;5015107;28;20411;-82
2021/12/27 11:00:46;;;;;;;108.43;62.80;;;;;;;;;;5026209;28;20410;-82
2021/12/27 11:03:22;;;;;;;107.17;64.77;;;;;;;;;;5026892;28;20406;-82
2021/12/27 11:05:48;;;;;;;106.47;64.83;;;;;;;;;;5028091;28;20472;-82
2021/12/27 11:08:15;;;;;;;102.70;62.93;;;;;;;;;;5024363;28;20507;-82
2021/12/27 11:10:41;;;;;;;119.13;67.97;;;;;;;;;;5006425;28;20470;-80
2021/12/27 11:13:07;;;;;;;108.27;65.03;;;;;;;;;;5027761;28;20468;-80
2021/12/27 11:15:36;;;;;;;106.63;63.00;;;;;;;;;;5012665;28;20403;-81
2021/12/27 11:18:03;;;;;;;107.07;63.27;;;;;;;;;;5013603;28;20404;-79
2021/12/27 11:20:29;;;;;;;101.63;61.33;;;;;;;;;;5010209;28;20411;-81
2021/12/27 11:22:58;;;;;;;99.37;60.90;;;;;;;;;;5026382;28;21910;-80
2021/12/27 11:25:37;;;;;;;98.53;60.03;;;;;;;;;;5022996;28;20454;-81
2021/12/27 11:28:23;;;;;;;102.57;62.03;;;;;;;;;;5008660;28;20408;-80
2021/12/27 11:30:50;;;;;;;101.70;61.23;;;;;;;;;;5026349;28;21323;-81
2021/12/27 11:33:20;;;;;;;116.63;68.90;;;;;;;;;;5023510;28;20483;-81
2021/12/27 11:35:53;;;;;;;107.47;66.50;;;;;;;;;;5023770;28;21286;-82
2021/12/27 11:38:33;;;;;;;114.80;67.10;;;;;;;;;;5007930;28;20422;-82
2021/12/27 11:41:00;;;;;;;120.33;70.37;;;;;;;;;;5024538;28;20457;-81
2021/12/27 11:43:46;;;;;;;118.23;69.13;;;;;;;;;;5023756;28;20417;-81
2021/12/27 11:46:22;;;;;;;;;;;;;;;;;;;;;
2021/12/27 11:48:53;;;;;;;108.17;66.20;;;;;;;;;;5023035;28;20448;-82
2021/12/27 11:51:32;;;;;;;116.53;69.53;;;;;;;;;;5024749;28;20460;-80
2021/12/27 11:53:59;;;;;;;122.67;75.00;;;;;;;;;;5022048;28;20437;-81
2021/12/27 11:56:47;;;;;;;111.53;71.77;;;;;;;;;;5025265;28;20535;-81
2021/12/27 11:59:36;;;;;;;131.40;78.43;;;;;;;;;;5024773;28;20497;-82
2021/12/27 12:02:43;;;;;;;121.97;75.77;;;;;;;;;;5008572;28;21016;-81
2021/12/27 12:05:32;;;;;;;116.27;71.87;;;;;;;;;;4968884;28;20533;-82
2021/12/27 12:07:58;;;;;;;127.30;78.77;;;;;;;;;;4970811;28;20487;-82
2021/12/27 12:10:28;;;;;;;128.77;78.57;;;;;;;;;;5003500;28;20426;-82
2021/12/27 12:13:31;;;;;;;128.47;79.33;;;;;;;;;;5026703;28;20451;-83
2021/12/27 12:16:07;;;;;;;119.87;73.53;;;;;;;;;;5012324;28;21130;-81
2021/12/27 12:18:33;;;;;;;139.73;81.07;;;;;;;;;;5019310;28;20450;-81
2021/12/27 12:21:00;;;;;;;126.33;76.63;;;;;;;;;;5004185;28;20529;-80
2021/12/27 12:23:27;;;;;;;116.97;70.77;;;;;;;;;;5010191;28;20419;-83
2021/12/27 12:26:00;;;;;;;112.37;69.43;;;;;;;;;;5019219;28;20454;-82
2021/12/27 12:28:26;;;;;;;115.93;69.77;;;;;;;;;;5004215;28;20461;-83
2021/12/27 12:30:53;;;;;;;114.87;69.97;;;;;;;;;;5021843;28;20419;-82
2021/12/27 12:33:20;;;;;;;124.93;72.27;;;;;;;;;;5008155;28;21202;-82
2021/12/27 12:35:48;;;;;;;123.93;72.67;;;;;;;;;;5020137;28;20472;-81
2021/12/27 12:38:14;;;;;;;125.40;72.10;;;;;;;;;;5007451;28;20501;-81
2021/12/27 12:40:40;;;;;;;129.70;74.63;;;;;;;;;;5025162;28;21340;-81
2021/12/27 12:43:06;;;;;;;123.33;70.07;;;;;;;;;;5026108;28;20498;-80
2021/12/27 12:45:33;;;;;;;115.43;69.53;;;;;;;;;;5022238;28;21412;-80
2021/12/27 12:48:00;;;;;;;131.30;72.13;;;;;;;;;;5018702;28;20414;-81
2021/12/27 12:50:26;;;;;;;123.90;70.77;;;;;;;;;;5019113;28;20480;-81
2021/12/27 12:52:57;;;;;;;127.00;73.23;;;;;;;;;;5007879;28;21165;-81
2021/12/27 12:55:23;;;;;;;132.00;74.50;;;;;;;;;;5018285;28;20723;-82
2021/12/27 12:57:53;;;;;;;141.97;81.17;;;;;;;;;;5021361;28;20957;-81
2021/12/27 13:00:23;;;;;;;129.03;74.03;;;;;;;;;;5008261;28;20412;-81
2021/12/27 13:02:49;;;;;;;127.03;73.63;;;;;;;;;;5008147;28;20498;-81
2021/12/27 13:05:16;;;;;;;119.33;69.53;;;;;;;;;;5022265;28;21114;-81
2021/12/27 13:07:46;;;;;;;118.37;70.00;;;;;;;;;;5021374;28;20428;-81
2021/12/27 13:10:29;;;;;;;114.90;66.53;;;;;;;;;;5022240;28;20411;-81
2021/12/27 13:13:00;;;;;;;109.00;65.53;;;;;;;;;;5025336;28;20409;-81
2021/12/27 13:15:33;;;;;;;116.17;66.87;;;;;;;;;;5002417;28;20418;-81
2021/12/27 13:18:17;;;;;;;109.73;63.50;;;;;;;;;;5020362;28;20873;-82
2021/12/27 13:20:44;;;;;;;108.90;64.93;;;;;;;;;;5022198;28;20458;-81
2021/12/27 13:23:11;;;;;;;119.90;68.47;;;;;;;;;;5020980;28;20411;-83
2021/12/27 13:25:41;;;;;;;104.23;61.77;;;;;;;;;;5019847;28;20466;-83
2021/12/27 13:28:22;;;;;;;113.47;66.87;;;;;;;;;;5018530;28;21043;-82
2021/12/27 13:30:49;;;;;;;111.00;63.93;;;;;;;;;;5023284;28;20422;-82
2021/12/27 13:33:20;;;;;;;100.03;59.43;;;;;;;;;;5011341;28;20419;-85
2021/12/27 13:35:47;;;;;;;105.27;62.23;;;;;;;;;;5013493;28;20426;-83
2021/12/27 13:38:31;;;;;;;102.37;61.03;;;;;;;;;;5022160;28;20510;-83
2021/12/27 13:41:07;;;;;;;112.33;65.20;;;;;;;;;;5011016;28;20421;-83
2021/12/27 13:43:45;;;;;;;109.03;65.63;;;;;;;;;;5026700;28;20471;-83
2021/12/27 13:46:12;;;;;;;110.30;63.70;;;;;;;;;;5012709;28;20446;-83
2021/12/27 13:48:39;;;;;;;106.37;62.93;;;;;;;;;;5023755;28;21315;-83
2021/12/27 13:51:05;;;;;;;106.40;64.13;;;;;;;;;;5008812;28;20911;-83
2021/12/27 13:53:32;;;;;;;107.93;62.17;;;;;;;;;;5011398;28;20426;-83
2021/12/27 13:56:08;;;;;;;107.93;65.10;;;;;;;;;;5011771;28;20426;-83
2021/12/27 13:58:39;;;;;;;108.30;64.53;;;;;;;;;;5022028;28;20519;-83
2021/12/27 14:01:09;;;;;;;105.33;64.60;;;;;;;;;;5027951;28;21425;-83
2021/12/27 14:03:35;;;;;;;108.20;64.40;;;;;;;;;;5008911;28;20568;-83
2021/12/27 14:06:09;;;;;;;112.67;65.03;;;;;;;;;;5008337;28;20450;-83
2021/12/27 14:08:35;;;;;;;114.30;66.93;;;;;;;;;;5013738;28;20423;-83
2021/12/27 14:11:03;;;;;;;100.60;62.10;;;;;;;;;;5021596;28;20418;-83
2021/12/27 14:13:44;;;;;;;111.60;65.93;;;;;;;;;;5005926;28;20430;-83